createdAt,value
2018-05-03T00:02:16.334Z,10.70
2018-05-03T00:04:42.465Z,10.80
2018-05-03T00:07:08.584Z,10.90
2018-05-03T00:09:34.840Z,10.90
2018-05-03T00:12:01.009Z,10.90
2018-05-03T00:14:27.101Z,10.90
2018-05-03T00:16:53.966Z,10.90
2018-05-03T00:19:20.108Z,10.90
2018-05-03T00:21:46.181Z,10.90
2018-05-03T00:24:12.274Z,10.90
2018-05-03T00:26:38.422Z,10.90
2018-05-03T00:29:04.525Z,10.90
2018-05-03T00:31:30.593Z,10.90
2018-05-03T00:33:57.408Z,10.90
2018-05-03T00:36:23.558Z,10.90
2018-05-03T00:38:49.706Z,11.00
2018-05-03T00:41:15.835Z,10.90
2018-05-03T00:43:41.940Z,10.80
2018-05-03T00:46:08.024Z,10.80
2018-05-03T00:48:34.221Z,10.70
2018-05-03T00:51:00.593Z,10.50
2018-05-03T00:53:26.723Z,10.40
2018-05-03T00:55:52.827Z,10.40
2018-05-03T00:58:18.912Z,10.40
2018-05-03T01:00:45.086Z,10.40
2018-05-03T01:03:11.182Z,10.40
2018-05-03T01:05:37.266Z,10.40
2018-05-03T01:08:04.118Z,10.50
2018-05-03T01:10:30.261Z,10.50
2018-05-03T01:12:56.437Z,10.50
2018-05-03T01:15:22.579Z,10.50
2018-05-03T01:17:49.419Z,10.40
2018-05-03T01:20:16.368Z,10.50
2018-05-03T01:22:43.209Z,10.50
2018-05-03T01:25:09.267Z,10.50
2018-05-03T01:27:35.484Z,10.50
2018-05-03T01:30:01.613Z,10.40
2018-05-03T01:32:27.765Z,10.50
2018-05-03T01:35:06.143Z,10.30
2018-05-03T01:37:32.262Z,10.40
2018-05-03T01:39:58.413Z,10.30
2018-05-03T01:42:24.547Z,10.40
2018-05-03T01:44:50.774Z,10.30
2018-05-03T01:47:16.859Z,10.30
2018-05-03T01:49:42.977Z,10.30
2018-05-03T01:52:09.124Z,10.30
2018-05-03T01:54:35.266Z,10.20
2018-05-03T01:57:01.359Z,10.40
2018-05-03T01:59:28.209Z,10.40
2018-05-03T02:01:54.322Z,10.40
2018-05-03T02:04:20.612Z,10.50
2018-05-03T02:06:46.812Z,10.50
2018-05-03T02:09:12.922Z,10.50
2018-05-03T02:11:39.052Z,10.50
2018-05-03T02:14:05.180Z,10.50
2018-05-03T02:16:31.287Z,10.40
2018-05-03T02:18:57.389Z,10.30
2018-05-03T02:21:24.235Z,10.10
2018-05-03T02:23:51.086Z,10.00
2018-05-03T02:26:17.921Z,10.00
2018-05-03T02:28:44.032Z,9.90
2018-05-03T02:31:10.119Z,9.90
2018-05-03T02:33:36.292Z,10.00
2018-05-03T02:36:03.172Z,9.90
2018-05-03T02:38:29.282Z,9.80
2018-05-03T02:40:55.361Z,9.80
2018-05-03T02:43:21.726Z,9.90
2018-05-03T02:45:48.775Z,9.80
2018-05-03T02:48:14.907Z,9.80
2018-05-03T02:50:41.761Z,9.70
2018-05-03T02:53:07.865Z,9.60
2018-05-03T02:55:33.985Z,9.70
2018-05-03T02:58:17.332Z,9.70
2018-05-03T03:01:02.127Z,9.60
2018-05-03T03:03:46.724Z,9.70
2018-05-03T03:06:31.308Z,9.70
2018-05-03T03:09:27.656Z,9.70
2018-05-03T03:12:13.961Z,9.80
2018-05-03T03:14:58.458Z,9.80
2018-05-03T03:17:43.074Z,9.70
2018-05-03T03:23:46.504Z,9.70
2018-05-03T03:26:25.896Z,9.70
2018-05-03T03:29:10.408Z,9.60
2018-05-03T03:31:54.893Z,9.60
2018-05-03T03:34:22.706Z,9.60
2018-05-03T03:37:25.321Z,9.50
2018-05-03T03:40:09.743Z,9.50
2018-05-03T03:45:32.771Z,9.50
2018-05-03T03:47:59.716Z,9.40
2018-05-03T03:50:25.864Z,9.40
2018-05-03T03:52:51.965Z,9.40
2018-05-03T03:55:18.809Z,9.40
2018-05-03T03:57:44.942Z,9.40
2018-05-03T04:00:11.036Z,9.40
2018-05-03T04:02:37.244Z,9.40
2018-05-03T04:05:03.406Z,9.30
2018-05-03T04:07:29.569Z,9.10
2018-05-03T04:09:55.868Z,9.10
2018-05-03T04:12:22.059Z,9.00
2018-05-03T04:14:48.162Z,8.90
2018-05-03T04:17:14.267Z,8.90
2018-05-03T04:19:52.561Z,8.90
2018-05-03T04:22:30.837Z,8.90
2018-05-03T04:25:10.477Z,9.00
2018-05-03T04:27:36.748Z,8.90
2018-05-03T04:30:02.905Z,8.90
2018-05-03T04:32:29.085Z,8.80
2018-05-03T04:34:55.224Z,8.80
2018-05-03T04:37:21.376Z,8.90
2018-05-03T04:39:47.480Z,8.90
2018-05-03T04:42:13.617Z,8.80
2018-05-03T04:44:39.853Z,8.80
2018-05-03T04:47:06.005Z,8.80
2018-05-03T04:49:32.310Z,8.90
2018-05-03T04:51:58.430Z,8.90
2018-05-03T04:54:24.523Z,8.90
2018-05-03T04:56:50.637Z,8.90
2018-05-03T04:59:16.921Z,8.90
2018-05-03T05:01:43.188Z,8.90
2018-05-03T05:04:09.338Z,8.90
2018-05-03T05:06:36.054Z,8.90
2018-05-03T05:09:02.201Z,8.90
2018-05-03T05:11:29.054Z,8.80
2018-05-03T05:13:55.207Z,8.80
2018-05-03T05:16:21.303Z,8.60
2018-05-03T05:18:47.452Z,8.60
2018-05-03T05:21:13.628Z,8.70
2018-05-03T05:23:39.758Z,8.70
2018-05-03T05:26:06.011Z,8.70
2018-05-03T05:28:32.134Z,8.60
2018-05-03T05:30:58.285Z,8.70
2018-05-03T05:33:24.406Z,8.70
2018-05-03T05:35:50.525Z,8.70
2018-05-03T05:38:16.736Z,8.70
2018-05-03T05:40:42.845Z,8.70
2018-05-03T05:43:09.956Z,8.80
2018-05-03T05:45:36.237Z,8.90
2018-05-03T05:48:02.443Z,8.80
2018-05-03T05:50:28.738Z,8.90
2018-05-03T05:52:54.848Z,8.80
2018-05-03T05:55:20.988Z,8.90
2018-05-03T05:57:47.204Z,8.80
2018-05-03T06:00:13.298Z,8.70
2018-05-03T06:02:39.466Z,8.70
2018-05-03T06:05:05.574Z,8.70
2018-05-03T06:07:32.211Z,8.70
2018-05-03T06:09:58.320Z,8.70
2018-05-03T06:12:24.481Z,8.70
2018-05-03T06:14:50.610Z,8.60
2018-05-03T06:17:16.762Z,8.60
2018-05-03T06:19:42.937Z,8.50
2018-05-03T06:22:09.097Z,8.60
2018-05-03T06:24:36.010Z,8.60
2018-05-03T06:27:02.196Z,8.50
2018-05-03T06:29:29.091Z,8.60
2018-05-03T06:31:55.252Z,8.60
2018-05-03T06:34:21.420Z,8.60
2018-05-03T06:36:47.590Z,8.60
2018-05-03T06:39:13.781Z,8.70
2018-05-03T06:41:39.894Z,8.70
2018-05-03T06:44:06.035Z,8.60
2018-05-03T06:46:32.170Z,8.60
2018-05-03T06:48:58.392Z,8.60
2018-05-03T06:51:24.599Z,8.70
2018-05-03T06:53:50.682Z,8.70
2018-05-03T06:56:16.761Z,8.70
2018-05-03T06:58:43.235Z,8.70
2018-05-03T07:01:09.364Z,8.70
2018-05-03T07:03:35.606Z,8.60
2018-05-03T07:06:01.844Z,8.60
2018-05-03T07:08:28.095Z,8.60
2018-05-03T07:10:54.229Z,8.60
2018-05-03T07:13:20.342Z,8.60
2018-05-03T07:15:46.562Z,8.60
2018-05-03T07:18:12.749Z,8.60
2018-05-03T07:20:39.210Z,8.60
2018-05-03T07:23:05.359Z,8.60
2018-05-03T07:25:31.801Z,8.60
2018-05-03T07:27:57.980Z,8.60
2018-05-03T07:30:24.104Z,8.60
2018-05-03T07:32:50.291Z,8.60
2018-05-03T07:35:16.615Z,8.60
2018-05-03T07:37:42.889Z,8.70
2018-05-03T07:40:09.772Z,8.70
2018-05-03T07:42:36.012Z,8.70
2018-05-03T07:45:02.256Z,8.70
2018-05-03T07:47:28.457Z,8.70
2018-05-03T07:49:54.597Z,8.60
2018-05-03T07:52:20.818Z,8.60
2018-05-03T07:54:47.093Z,8.60
2018-05-03T07:57:13.225Z,8.70
2018-05-03T07:59:39.872Z,8.60
2018-05-03T08:02:07.043Z,8.60
2018-05-03T08:04:33.905Z,8.70
2018-05-03T08:07:00.045Z,8.70
2018-05-03T08:09:26.316Z,8.70
2018-05-03T08:11:53.243Z,8.70
2018-05-03T08:14:19.379Z,8.70
2018-05-03T08:16:45.615Z,8.70
2018-05-03T08:19:12.494Z,8.70
2018-05-03T08:21:38.612Z,8.70
2018-05-03T08:24:04.757Z,8.80
2018-05-03T08:26:30.881Z,8.90
2018-05-03T08:28:57.000Z,9.00
2018-05-03T08:31:23.187Z,9.20
2018-05-03T08:33:49.308Z,9.40
2018-05-03T08:36:15.397Z,9.40
2018-05-03T08:38:41.535Z,9.50
2018-05-03T08:41:07.832Z,9.40
2018-05-03T08:43:33.962Z,9.40
2018-05-03T08:46:00.115Z,9.40
2018-05-03T08:48:26.330Z,9.40
2018-05-03T08:50:52.465Z,9.40
2018-05-03T08:53:18.612Z,9.40
2018-05-03T08:55:44.781Z,9.40
2018-05-03T08:58:10.827Z,9.40
2018-05-03T09:00:36.988Z,9.50
2018-05-03T09:03:03.260Z,9.50
2018-05-03T09:05:29.961Z,9.50
2018-05-03T09:07:56.313Z,9.60
2018-05-03T09:10:22.468Z,9.50
2018-05-03T09:12:48.605Z,9.50
2018-05-03T09:15:14.684Z,9.60
2018-05-03T09:17:40.794Z,9.60
2018-05-03T09:20:06.951Z,9.70
2018-05-03T09:22:33.252Z,9.70
2018-05-03T09:24:59.354Z,9.80
2018-05-03T09:27:25.531Z,9.80
2018-05-03T09:29:51.620Z,9.90
2018-05-03T09:32:18.593Z,10.00
2018-05-03T09:34:44.900Z,10.00
2018-05-03T09:37:11.786Z,10.00
2018-05-03T09:39:37.919Z,10.00
2018-05-03T09:42:04.018Z,10.10
2018-05-03T09:44:30.221Z,10.20
2018-05-03T09:46:56.332Z,10.20
2018-05-03T09:49:23.175Z,10.40
2018-05-03T09:51:50.281Z,10.40
2018-05-03T09:54:16.471Z,10.40
2018-05-03T09:56:42.536Z,10.40
2018-05-03T09:59:08.633Z,10.40
2018-05-03T10:01:34.800Z,10.30
2018-05-03T10:04:00.942Z,10.30
2018-05-03T10:06:27.254Z,10.20
2018-05-03T10:08:53.403Z,10.30
2018-05-03T10:11:20.081Z,10.30
2018-05-03T10:13:46.263Z,10.40
2018-05-03T10:16:13.180Z,10.40
2018-05-03T10:18:39.377Z,10.40
2018-05-03T10:21:05.487Z,10.40
2018-05-03T10:23:32.460Z,10.50
2018-05-03T10:25:58.715Z,10.50
2018-05-03T10:28:25.090Z,10.50
2018-05-03T10:30:51.260Z,10.50
2018-05-03T10:33:17.753Z,10.60
2018-05-03T10:35:46.589Z,10.70
2018-05-03T10:38:13.408Z,10.90
2018-05-03T10:40:40.243Z,10.90
2018-05-03T10:43:08.180Z,10.80
2018-05-03T10:45:34.694Z,11.00
2018-05-03T10:48:01.818Z,11.30
2018-05-03T10:50:28.088Z,11.30
2018-05-03T10:52:54.282Z,11.30
2018-05-03T10:55:20.553Z,11.20
2018-05-03T10:57:46.763Z,11.10
2018-05-03T11:00:13.034Z,11.00
2018-05-03T11:02:41.715Z,11.00
2018-05-03T11:05:10.870Z,10.90
2018-05-03T11:07:41.646Z,10.90
2018-05-03T11:10:09.487Z,10.80
2018-05-03T11:12:36.220Z,10.90
2018-05-03T11:15:03.226Z,10.90
2018-05-03T11:17:29.600Z,10.80
2018-05-03T11:19:55.829Z,10.90
2018-05-03T11:22:22.325Z,10.90
2018-05-03T11:24:48.545Z,11.00
2018-05-03T11:27:14.848Z,10.90
2018-05-03T11:29:41.008Z,10.90
2018-05-03T11:32:07.278Z,11.00
2018-05-03T11:34:34.565Z,11.00
2018-05-03T11:37:01.586Z,11.00
2018-05-03T11:39:27.840Z,11.00
2018-05-03T11:41:54.369Z,10.90
2018-05-03T11:44:20.634Z,10.80
2018-05-03T11:46:47.483Z,10.80
2018-05-03T11:49:15.519Z,11.00
2018-05-03T11:51:41.739Z,11.00
2018-05-03T11:54:08.327Z,10.90
2018-05-03T11:56:34.965Z,10.80
2018-05-03T11:59:01.295Z,10.90
2018-05-03T12:01:28.386Z,10.90
2018-05-03T12:03:54.643Z,10.90
2018-05-03T12:06:20.941Z,10.90
2018-05-03T12:08:47.482Z,11.00
2018-05-03T12:11:13.800Z,10.90
2018-05-03T12:13:40.075Z,10.90
2018-05-03T12:16:07.149Z,10.90
2018-05-03T12:18:34.655Z,10.90
2018-05-03T12:21:00.972Z,10.80
2018-05-03T12:23:27.593Z,10.80
2018-05-03T12:25:55.358Z,10.80
2018-05-03T12:28:21.785Z,10.80
2018-05-03T12:30:48.226Z,10.90
2018-05-03T12:33:14.477Z,11.00
2018-05-03T12:35:40.742Z,11.00
2018-05-03T12:38:07.082Z,10.90
2018-05-03T12:40:33.610Z,10.80
2018-05-03T12:42:59.917Z,10.80
2018-05-03T12:45:26.029Z,10.80
2018-05-03T12:47:53.399Z,10.80
2018-05-03T12:50:21.074Z,10.80
2018-05-03T12:52:47.475Z,10.80
2018-05-03T12:55:13.876Z,10.90
2018-05-03T12:57:40.183Z,10.90
2018-05-03T13:00:06.565Z,10.90
2018-05-03T13:02:32.975Z,11.00
2018-05-03T13:04:59.208Z,11.10
2018-05-03T13:07:25.728Z,11.10
2018-05-03T13:09:52.230Z,11.10
2018-05-03T13:12:19.417Z,11.20
2018-05-03T13:14:45.974Z,11.20
2018-05-03T13:17:12.556Z,11.20
2018-05-03T13:19:40.023Z,11.30
2018-05-03T13:22:07.306Z,11.30
2018-05-03T13:24:34.108Z,11.30
2018-05-03T13:27:01.249Z,11.40
2018-05-03T13:29:27.554Z,11.40
2018-05-03T13:31:54.122Z,11.40
2018-05-03T13:34:20.762Z,11.40
2018-05-03T13:36:47.382Z,11.30
2018-05-03T13:39:13.809Z,11.40
2018-05-03T13:41:40.268Z,11.50
2018-05-03T13:44:07.517Z,11.60
2018-05-03T13:46:34.765Z,11.60
2018-05-03T13:49:01.369Z,11.50
2018-05-03T13:51:27.856Z,11.60
2018-05-03T13:53:54.403Z,11.60
2018-05-03T13:56:21.118Z,11.50
2018-05-03T13:58:48.145Z,11.50
2018-05-03T14:01:15.207Z,11.60
2018-05-03T14:03:41.569Z,11.60
2018-05-03T14:06:08.149Z,11.60
2018-05-03T14:08:35.364Z,11.70
2018-05-03T14:11:02.035Z,11.70
2018-05-03T14:13:29.226Z,11.60
2018-05-03T14:15:56.095Z,11.60
2018-05-03T14:18:23.068Z,11.50
2018-05-03T14:20:50.503Z,11.60
2018-05-03T14:23:16.953Z,11.60
2018-05-03T14:25:43.272Z,11.70
2018-05-03T14:28:10.209Z,11.70
2018-05-03T14:30:36.383Z,11.70
2018-05-03T14:33:03.333Z,11.70
2018-05-03T14:35:29.942Z,11.60
2018-05-03T14:37:56.361Z,11.60
2018-05-03T14:40:23.027Z,11.50
2018-05-03T14:42:50.402Z,11.50
2018-05-03T14:45:16.794Z,11.50
2018-05-03T14:47:43.108Z,11.60
2018-05-03T14:50:10.049Z,11.60
2018-05-03T14:52:36.612Z,11.60
2018-05-03T14:55:03.113Z,11.60
2018-05-03T14:57:29.254Z,11.70
2018-05-03T14:59:55.792Z,11.80
2018-05-03T15:02:21.960Z,11.70
2018-05-03T15:04:48.957Z,11.70
2018-05-03T15:07:15.349Z,11.70
2018-05-03T15:09:41.595Z,11.70
2018-05-03T15:12:07.892Z,11.70
2018-05-03T15:14:34.169Z,11.70
2018-05-03T15:17:00.295Z,11.70
2018-05-03T15:19:26.422Z,11.80
2018-05-03T15:21:52.652Z,11.80
2018-05-03T15:24:18.835Z,11.80
2018-05-03T15:26:44.958Z,11.80
2018-05-03T15:29:11.133Z,11.80
2018-05-03T15:31:37.858Z,11.80
2018-05-03T15:34:04.204Z,11.80
2018-05-03T15:36:31.098Z,11.80
2018-05-03T15:38:58.550Z,11.80
2018-05-03T15:41:25.512Z,11.80
2018-05-03T15:43:52.098Z,11.80
2018-05-03T15:46:21.641Z,11.80
2018-05-03T15:48:49.661Z,11.90
2018-05-03T15:51:16.316Z,11.80
2018-05-03T15:53:45.054Z,11.80
2018-05-03T15:56:12.482Z,11.70
2018-05-03T15:58:49.155Z,11.70
2018-05-03T16:01:15.700Z,11.70
2018-05-03T16:03:44.709Z,11.70
2018-05-03T16:06:11.700Z,11.80
2018-05-03T16:08:37.929Z,11.80
2018-05-03T16:11:04.237Z,11.70
2018-05-03T16:13:31.242Z,11.70
2018-05-03T16:15:57.493Z,11.70
2018-05-03T16:18:24.633Z,11.70
2018-05-03T16:20:51.259Z,11.70
2018-05-03T16:23:17.707Z,11.80
2018-05-03T16:25:43.885Z,11.80
2018-05-03T16:28:10.154Z,11.80
2018-05-03T16:30:36.535Z,11.70
2018-05-03T16:33:02.758Z,11.80
2018-05-03T16:35:28.906Z,11.80
2018-05-03T16:37:55.278Z,11.80
2018-05-03T16:40:21.595Z,11.80
2018-05-03T16:42:47.835Z,11.80
2018-05-03T16:45:14.712Z,11.80
2018-05-03T16:47:41.151Z,11.80
2018-05-03T16:50:07.409Z,11.70
2018-05-03T16:52:33.783Z,11.70
2018-05-03T16:55:00.848Z,11.60
2018-05-03T16:57:43.899Z,11.60
2018-05-03T17:00:10.288Z,11.60
2018-05-03T17:02:47.399Z,11.60
2018-05-03T17:05:13.767Z,11.60
2018-05-03T17:07:40.272Z,11.60
2018-05-03T17:10:08.673Z,11.60
2018-05-03T17:12:35.110Z,11.70
2018-05-03T17:15:01.499Z,11.80
2018-05-03T17:17:30.912Z,11.80
2018-05-03T17:19:57.443Z,11.80
2018-05-03T17:22:27.511Z,11.80
2018-05-03T17:24:54.976Z,11.90
2018-05-03T17:27:21.451Z,12.00
2018-05-03T17:29:48.484Z,12.00
2018-05-03T17:32:15.240Z,11.90
2018-05-03T17:34:41.473Z,12.00
2018-05-03T17:37:07.800Z,12.00
2018-05-03T17:39:34.971Z,12.00
2018-05-03T17:42:04.844Z,12.00
2018-05-03T17:44:32.188Z,12.10
2018-05-03T17:46:58.266Z,12.10
2018-05-03T17:49:33.154Z,12.10
2018-05-03T17:52:00.309Z,12.10
2018-05-03T17:54:26.843Z,12.00
2018-05-03T17:57:08.849Z,12.00
2018-05-03T17:59:35.796Z,12.00
2018-05-03T18:02:02.229Z,11.90
2018-05-03T18:04:28.723Z,11.90
2018-05-03T18:06:55.236Z,11.90
2018-05-03T18:09:21.521Z,11.90
2018-05-03T18:14:48.497Z,11.90
2018-05-03T18:17:14.899Z,11.80
2018-05-03T18:19:41.729Z,11.80
2018-05-03T18:22:08.150Z,11.80
2018-05-03T18:24:34.478Z,11.80
2018-05-03T18:27:05.293Z,11.80
2018-05-03T18:29:31.651Z,11.80
2018-05-03T18:32:02.362Z,11.90
2018-05-03T18:34:29.353Z,11.90
2018-05-03T18:39:41.577Z,11.90
2018-05-03T18:42:26.807Z,11.90
2018-05-03T18:44:53.090Z,11.90
2018-05-03T18:47:19.556Z,11.90
2018-05-03T18:49:46.183Z,11.90
2018-05-03T18:52:20.951Z,12.00
2018-05-03T19:01:31.072Z,12.00
2018-05-03T19:03:58.564Z,11.90
2018-05-03T19:06:26.296Z,11.90
2018-05-03T19:09:05.502Z,11.90
2018-05-03T19:11:31.815Z,11.90
2018-05-03T19:14:07.573Z,11.90
2018-05-03T19:16:34.059Z,11.90
2018-05-03T19:19:00.296Z,11.90
2018-05-03T19:21:26.967Z,11.80
2018-05-03T19:23:53.209Z,11.90
2018-05-03T19:26:19.393Z,11.90
2018-05-03T19:28:45.720Z,11.90
2018-05-03T19:31:12.346Z,11.80
2018-05-03T19:33:39.337Z,11.80
2018-05-03T19:36:05.614Z,11.80
2018-05-03T19:38:33.133Z,11.80
2018-05-03T19:40:59.313Z,11.80
2018-05-03T19:43:28.386Z,11.90
2018-05-03T19:45:54.658Z,11.90
2018-05-03T19:48:20.807Z,11.90
2018-05-03T19:50:46.980Z,11.90
2018-05-03T19:53:14.694Z,11.90
2018-05-03T19:55:42.408Z,11.90
2018-05-03T19:58:09.097Z,11.90
2018-05-03T20:00:35.480Z,11.90
2018-05-03T20:03:02.573Z,11.90
2018-05-03T20:05:29.032Z,11.90
2018-05-03T20:07:55.504Z,11.90
2018-05-03T20:10:21.874Z,11.90
2018-05-03T20:12:48.193Z,11.90
2018-05-03T20:15:14.630Z,11.90
2018-05-03T20:17:40.856Z,11.90
2018-05-03T20:20:07.795Z,11.90
2018-05-03T20:22:36.582Z,11.90
2018-05-03T20:25:02.761Z,11.90
2018-05-03T20:27:28.996Z,11.90
2018-05-03T20:32:49.261Z,11.90
2018-05-03T20:35:15.469Z,11.90
2018-05-03T20:37:41.696Z,11.90
2018-05-03T20:40:08.049Z,11.90
2018-05-03T20:42:42.836Z,11.90
2018-05-03T20:45:12.512Z,11.90
2018-05-03T20:47:56.672Z,11.90
2018-05-03T20:50:22.887Z,11.90
2018-05-03T20:52:49.249Z,11.90
2018-05-03T20:55:15.477Z,11.90
2018-05-03T20:57:41.644Z,12.00
2018-05-03T21:00:07.914Z,12.10
2018-05-03T21:02:34.969Z,12.10
2018-05-03T21:05:01.301Z,12.10
2018-05-03T21:07:27.771Z,12.00
2018-05-03T21:09:53.998Z,12.00
2018-05-03T21:12:20.399Z,12.00
2018-05-03T21:14:46.924Z,12.00
2018-05-03T21:17:20.778Z,12.00
2018-05-03T21:19:46.975Z,12.00
2018-05-03T21:22:13.192Z,12.00
2018-05-03T21:24:39.375Z,11.90
2018-05-03T21:27:08.253Z,11.80
2018-05-03T21:29:34.591Z,11.90
2018-05-03T21:32:01.214Z,11.80
2018-05-03T21:34:28.278Z,11.80
2018-05-03T21:36:54.396Z,11.80
2018-05-03T21:39:20.706Z,11.90
2018-05-03T21:41:47.276Z,11.90
2018-05-03T21:44:13.451Z,11.90
2018-05-03T21:46:41.010Z,12.00
2018-05-03T21:49:10.605Z,12.00
2018-05-03T21:51:36.832Z,12.00
2018-05-03T21:54:05.933Z,12.00
2018-05-03T21:56:32.110Z,12.00
2018-05-03T21:58:58.421Z,12.00
2018-05-03T22:01:24.778Z,11.90
2018-05-03T22:03:51.270Z,11.90
2018-05-03T22:06:17.687Z,11.90
2018-05-03T22:08:43.990Z,11.90
2018-05-03T22:11:11.197Z,12.00
2018-05-03T22:13:44.302Z,11.90
2018-05-03T22:16:10.669Z,11.90
2018-05-03T22:18:41.197Z,12.00
2018-05-03T22:21:07.494Z,12.00
2018-05-03T22:23:38.317Z,11.90
2018-05-03T22:26:04.855Z,11.90
2018-05-03T22:28:31.292Z,12.00
2018-05-03T22:33:47.290Z,12.00
2018-05-03T22:38:52.612Z,12.00
2018-05-03T22:41:19.386Z,12.00
2018-05-03T22:43:45.822Z,12.00
2018-05-03T22:46:12.418Z,12.00
2018-05-03T22:48:38.997Z,12.00
2018-05-03T22:51:05.388Z,12.00
2018-05-03T22:53:31.933Z,12.00
2018-05-03T22:55:58.506Z,12.10
2018-05-03T22:58:24.988Z,12.00
2018-05-03T23:00:51.381Z,12.00
2018-05-03T23:03:17.637Z,12.00
2018-05-03T23:05:55.411Z,12.00
2018-05-03T23:08:46.821Z,12.00
2018-05-03T23:11:18.112Z,12.00
2018-05-03T23:13:44.813Z,12.00
2018-05-03T23:19:25.361Z,12.00
2018-05-03T23:21:51.906Z,12.00
2018-05-03T23:24:18.093Z,12.00
2018-05-03T23:26:45.463Z,12.00
2018-05-03T23:29:12.694Z,11.90
2018-05-03T23:31:39.198Z,12.00
2018-05-03T23:34:06.227Z,12.00
2018-05-03T23:36:32.622Z,12.00
2018-05-03T23:38:59.236Z,12.00
2018-05-03T23:41:25.929Z,12.00
2018-05-03T23:43:52.292Z,12.00
2018-05-03T23:46:32.106Z,12.00
2018-05-03T23:49:04.898Z,12.00
2018-05-03T23:51:31.263Z,12.00
2018-05-03T23:54:06.461Z,12.00
2018-05-03T23:56:33.416Z,12.00
2018-05-03T23:59:00.843Z,12.00
